Time;durP1;ratioP1;P1;durP2;ratioP2;P2;SDS_P1;SDS_P2;PMS_P1;PMS_P2;Temp;Humidity;BMP_temperature;BMP_pressure;BME280_temperature;BME280_humidity;BME280_pressure;Samples;Min_cycle;Max_cycle;Signal;HPM_P1;HPM_P2
2023/08/13 00:00:00;;;;;;;;;;;16.80;99.90;;;;;;5034913;28;19925;-43
2023/08/13 00:02:26;;;;;;;;;;;16.80;99.90;;;;;;5035103;28;20336;-44
2023/08/13 00:04:54;;;;;;;;;;;16.80;99.90;;;;;;5034771;28;19929;-44
2023/08/13 00:07:21;;;;;;;;;;;16.80;99.90;;;;;;5034890;28;19925;-43
2023/08/13 00:09:48;;;;;;;;;;;16.80;99.90;;;;;;5034548;28;19925;-44
2023/08/13 00:12:14;;;;;;;;;;;16.90;99.90;;;;;;5035235;28;19948;-44
2023/08/13 00:14:41;;;;;;;;;;;16.90;99.90;;;;;;5033763;28;19925;-44
2023/08/13 00:17:08;;;;;;;;;;;16.90;99.90;;;;;;5034879;28;20042;-43
2023/08/13 00:19:34;;;;;;;;;;;16.90;99.90;;;;;;5034413;28;19983;-44
2023/08/13 00:22:03;;;;;;;;;;;16.90;99.90;;;;;;5033006;28;19948;-44
2023/08/13 00:24:30;;;;;;;;;;;16.90;99.90;;;;;;5034448;28;20270;-44
2023/08/13 00:26:56;;;;;;;;;;;16.90;99.90;;;;;;5017140;28;20153;-43
2023/08/13 00:29:23;;;;;;;;;;;16.90;99.90;;;;;;5014063;28;19991;-43
2023/08/13 00:31:54;;;;;;;;;;;17.00;99.90;;;;;;5014607;28;20373;-43
2023/08/13 00:34:21;;;;;;;;;;;17.00;99.90;;;;;;5014761;28;19926;-43
2023/08/13 00:36:48;;;;;;;;;;;17.00;99.90;;;;;;5023097;28;19987;-44
2023/08/13 00:39:16;;;;;;;;;;;17.00;99.90;;;;;;5033584;28;19925;-44
2023/08/13 00:41:42;;;;;;;;;;;17.00;99.90;;;;;;5032781;28;19929;-43
2023/08/13 00:44:09;;;;;;;;;;;17.00;99.90;;;;;;5034209;28;20377;-44
2023/08/13 00:46:36;;;;;;;;;;;17.00;99.90;;;;;;5034629;28;19932;-43
2023/08/13 00:49:02;;;;;;;;;;;17.00;99.90;;;;;;5033206;28;19925;-44
2023/08/13 00:51:29;;;;;;;;;;;16.90;99.90;;;;;;5032862;28;20451;-44
2023/08/13 00:53:56;;;;;;;;;;;16.90;99.90;;;;;;5032703;28;19925;-43
2023/08/13 00:56:24;;;;;;;;;;;16.90;99.90;;;;;;5033815;28;20447;-44
2023/08/13 00:58:51;;;;;;;;;;;16.90;99.90;;;;;;5032316;28;19931;-44
2023/08/13 01:01:18;;;;;;;;;;;16.90;99.90;;;;;;5033955;28;19925;-44
2023/08/13 01:03:44;;;;;;;;;;;16.90;99.90;;;;;;5032687;28;19936;-43
2023/08/13 01:06:12;;;;;;;;;;;16.80;99.90;;;;;;5033646;28;20397;-44
2023/08/13 01:08:41;;;;;;;;;;;16.80;99.90;;;;;;5032321;28;19929;-44
2023/08/13 01:11:10;;;;;;;;;;;16.80;99.90;;;;;;5032931;28;19928;-42
2023/08/13 01:13:39;;;;;;;;;;;16.80;99.90;;;;;;5033777;28;20368;-44
2023/08/13 01:16:06;;;;;;;;;;;16.80;99.90;;;;;;5033529;28;19925;-43
2023/08/13 01:18:33;;;;;;;;;;;16.70;99.90;;;;;;5031916;28;19933;-43
2023/08/13 01:20:59;;;;;;;;;;;16.70;99.90;;;;;;5032476;28;19961;-44
2023/08/13 01:23:28;;;;;;;;;;;16.70;99.90;;;;;;5032248;28;19933;-44
2023/08/13 01:25:57;;;;;;;;;;;16.70;99.90;;;;;;5029858;28;19929;-43
2023/08/13 01:28:27;;;;;;;;;;;16.70;99.90;;;;;;5032661;28;19925;-43
2023/08/13 01:30:55;;;;;;;;;;;16.70;99.90;;;;;;5033119;28;19929;-43
2023/08/13 01:33:26;;;;;;;;;;;16.60;99.90;;;;;;5031772;28;19925;-44
2023/08/13 01:35:53;;;;;;;;;;;16.60;99.90;;;;;;5032986;28;20397;-44
2023/08/13 01:38:20;;;;;;;;;;;16.60;99.90;;;;;;5032183;28;19971;-43
2023/08/13 01:40:48;;;;;;;;;;;16.60;99.90;;;;;;5032277;28;19987;-43
2023/08/13 01:43:14;;;;;;;;;;;16.60;99.90;;;;;;5033111;28;20434;-44
2023/08/13 01:45:41;;;;;;;;;;;16.60;99.90;;;;;;5032272;28;19929;-43
2023/08/13 01:48:08;;;;;;;;;;;16.60;99.90;;;;;;5032709;28;19975;-42
2023/08/13 01:50:35;;;;;;;;;;;16.60;99.90;;;;;;5032857;28;19929;-44
2023/08/13 01:53:02;;;;;;;;;;;16.60;99.90;;;;;;5031802;28;20000;-44
2023/08/13 01:55:29;;;;;;;;;;;16.60;99.90;;;;;;5031622;28;19932;-44
2023/08/13 01:57:57;;;;;;;;;;;16.60;99.90;;;;;;5031522;28;19932;-43
2023/08/13 02:00:23;;;;;;;;;;;16.60;99.90;;;;;;5031917;28;19978;-44
2023/08/13 02:02:50;;;;;;;;;;;16.60;99.90;;;;;;5031772;28;19932;-44
2023/08/13 02:05:17;;;;;;;;;;;16.60;99.90;;;;;;5031983;28;19933;-44
2023/08/13 02:07:43;;;;;;;;;;;16.60;99.90;;;;;;5032853;28;20381;-44
2023/08/13 02:10:11;;;;;;;;;;;16.50;99.90;;;;;;5023561;28;19925;-44
2023/08/13 02:12:38;;;;;;;;;;;16.50;99.90;;;;;;5011970;28;20016;-43
2023/08/13 02:15:07;;;;;;;;;;;16.50;99.90;;;;;;5012663;28;19925;-44
2023/08/13 02:17:33;;;;;;;;;;;16.50;99.90;;;;;;5012662;28;20283;-43
2023/08/13 02:20:00;;;;;;;;;;;16.50;99.90;;;;;;5012134;28;19925;-43
2023/08/13 02:22:27;;;;;;;;;;;16.50;99.90;;;;;;5011801;28;19930;-43
2023/08/13 02:24:53;;;;;;;;;;;16.40;99.90;;;;;;5012495;28;19956;-43
2023/08/13 02:27:20;;;;;;;;;;;16.40;99.90;;;;;;5012802;28;19989;-43
2023/08/13 02:29:47;;;;;;;;;;;16.50;99.90;;;;;;5015315;28;19925;-44
2023/08/13 02:32:15;;;;;;;;;;;16.40;99.90;;;;;;5031415;28;19929;-44
2023/08/13 02:34:45;;;;;;;;;;;16.40;99.90;;;;;;5030935;28;19925;-44
2023/08/13 02:37:12;;;;;;;;;;;16.40;99.90;;;;;;5032107;28;19996;-44
2023/08/13 02:39:38;;;;;;;;;;;16.40;99.90;;;;;;5031695;28;19968;-44
2023/08/13 02:42:05;;;;;;;;;;;16.30;99.90;;;;;;5032221;28;19925;-44
2023/08/13 02:44:32;;;;;;;;;;;16.30;99.90;;;;;;5030820;28;20286;-43
2023/08/13 02:46:58;;;;;;;;;;;16.30;99.90;;;;;;5031038;28;20343;-44
2023/08/13 02:49:26;;;;;;;;;;;16.30;99.90;;;;;;5031881;28;19932;-44
2023/08/13 02:51:53;;;;;;;;;;;16.30;99.90;;;;;;5032048;28;20292;-44
2023/08/13 02:54:20;;;;;;;;;;;16.20;99.90;;;;;;5031943;28;19925;-44
2023/08/13 02:56:46;;;;;;;;;;;16.20;99.90;;;;;;5031791;28;19929;-43
2023/08/13 02:59:13;;;;;;;;;;;16.20;99.90;;;;;;5030620;28;20436;-44
2023/08/13 03:01:40;;;;;;;;;;;16.10;99.90;;;;;;5031850;28;19929;-43
2023/08/13 03:04:06;;;;;;;;;;;16.10;99.90;;;;;;5029859;28;20264;-44
2023/08/13 03:06:34;;;;;;;;;;;16.10;99.90;;;;;;5031828;28;19979;-44
2023/08/13 03:09:01;;;;;;;;;;;16.10;99.90;;;;;;5031673;28;19925;-43
2023/08/13 03:11:28;;;;;;;;;;;16.10;99.90;;;;;;5031714;28;19929;-43
2023/08/13 03:13:54;;;;;;;;;;;16.10;99.90;;;;;;5031576;28;19925;-44
2023/08/13 03:16:21;;;;;;;;;;;16.00;99.90;;;;;;5030588;28;19929;-43
2023/08/13 03:18:48;;;;;;;;;;;16.00;99.90;;;;;;5031314;28;19983;-44
2023/08/13 03:21:14;;;;;;;;;;;16.00;99.90;;;;;;5030551;28;19925;-43
2023/08/13 03:23:42;;;;;;;;;;;16.00;99.90;;;;;;5031541;28;19951;-44
2023/08/13 03:26:09;;;;;;;;;;;15.90;99.90;;;;;;5020797;28;19933;-43
2023/08/13 03:28:36;;;;;;;;;;;15.90;99.90;;;;;;5011627;28;20443;-43
2023/08/13 03:31:02;;;;;;;;;;;15.90;99.90;;;;;;5011474;28;19925;-43
2023/08/13 03:33:29;;;;;;;;;;;15.90;99.90;;;;;;5014139;28;19980;-44
2023/08/13 03:35:56;;;;;;;;;;;15.80;99.90;;;;;;5014671;28;19925;-44
2023/08/13 03:38:22;;;;;;;;;;;15.80;99.90;;;;;;5028093;28;19925;-43
2023/08/13 03:40:50;;;;;;;;;;;15.80;99.90;;;;;;5014375;28;19925;-42
2023/08/13 03:43:17;;;;;;;;;;;15.80;99.90;;;;;;5014327;28;19926;-44
2023/08/13 03:45:44;;;;;;;;;;;15.80;99.90;;;;;;5022773;28;19956;-42
2023/08/13 03:48:10;;;;;;;;;;;15.70;99.90;;;;;;5035199;28;19929;-43
2023/08/13 03:50:40;;;;;;;;;;;15.70;99.90;;;;;;5034490;28;19925;-43
2023/08/13 03:53:07;;;;;;;;;;;15.70;99.90;;;;;;5035112;28;19933;-44
2023/08/13 03:55:33;;;;;;;;;;;15.70;99.90;;;;;;5033870;28;19925;-43
2023/08/13 03:58:01;;;;;;;;;;;15.70;99.90;;;;;;5031078;28;19999;-43
2023/08/13 04:00:28;;;;;;;;;;;15.70;99.90;;;;;;5034555;28;19925;-44
2023/08/13 04:02:55;;;;;;;;;;;15.70;99.90;;;;;;5034599;28;19982;-44
2023/08/13 04:05:21;;;;;;;;;;;15.70;99.90;;;;;;5035256;28;19931;-43
2023/08/13 04:07:48;;;;;;;;;;;15.70;99.90;;;;;;5034964;28;19925;-43
2023/08/13 04:10:15;;;;;;;;;;;15.70;99.90;;;;;;5034677;28;20020;-43
2023/08/13 04:12:42;;;;;;;;;;;15.70;99.90;;;;;;5034762;28;19925;-43
2023/08/13 04:15:10;;;;;;;;;;;15.70;99.90;;;;;;5034742;28;19926;-43
2023/08/13 04:17:37;;;;;;;;;;;15.70;99.90;;;;;;5033611;28;19925;-43
2023/08/13 04:20:05;;;;;;;;;;;15.70;99.90;;;;;;5034209;28;20030;-43
2023/08/13 04:22:31;;;;;;;;;;;15.70;99.90;;;;;;5033783;28;20365;-43
2023/08/13 04:24:58;;;;;;;;;;;15.70;99.90;;;;;;5034257;28;19959;-42
2023/08/13 04:27:24;;;;;;;;;;;15.80;99.90;;;;;;5029955;28;20229;-44
2023/08/13 04:29:51;;;;;;;;;;;15.80;99.90;;;;;;5015621;28;19925;-43
2023/08/13 04:32:19;;;;;;;;;;;15.80;99.90;;;;;;5032883;28;20028;-44
2023/08/13 04:34:46;;;;;;;;;;;15.80;99.90;;;;;;5034701;28;19956;-43
2023/08/13 04:37:12;;;;;;;;;;;15.80;99.90;;;;;;5033421;28;20619;-43
2023/08/13 04:39:39;;;;;;;;;;;15.80;99.90;;;;;;5034517;28;19925;-44
2023/08/13 04:42:06;;;;;;;;;;;15.90;99.90;;;;;;5033256;28;19925;-43
2023/08/13 04:44:33;;;;;;;;;;;15.90;99.90;;;;;;5034162;28;19925;-43
2023/08/13 04:46:59;;;;;;;;;;;15.90;99.90;;;;;;5034119;28;20302;-44
2023/08/13 04:49:27;;;;;;;;;;;15.90;99.90;;;;;;5033968;28;20340;-44
2023/08/13 04:51:54;;;;;;;;;;;15.90;99.90;;;;;;5033213;28;19983;-43
2023/08/13 04:54:21;;;;;;;;;;;15.90;99.90;;;;;;5033302;28;19932;-43
2023/08/13 04:56:47;;;;;;;;;;;16.00;99.90;;;;;;5034026;28;20333;-43
2023/08/13 04:59:14;;;;;;;;;;;16.00;99.90;;;;;;5033988;28;19933;-44
2023/08/13 05:01:41;;;;;;;;;;;16.00;99.90;;;;;;5033363;28;19925;-43
2023/08/13 05:04:08;;;;;;;;;;;16.00;99.90;;;;;;5033817;28;20393;-41
2023/08/13 05:06:36;;;;;;;;;;;16.10;99.90;;;;;;5034031;28;19936;-43
2023/08/13 05:09:02;;;;;;;;;;;16.10;99.90;;;;;;5033240;28;20373;-44
2023/08/13 05:11:29;;;;;;;;;;;16.10;99.90;;;;;;5033260;28;19971;-43
2023/08/13 05:13:56;;;;;;;;;;;16.10;99.90;;;;;;5033700;28;19925;-43
2023/08/13 05:16:22;;;;;;;;;;;16.10;99.90;;;;;;5032849;28;20241;-42
2023/08/13 05:18:49;;;;;;;;;;;16.10;99.90;;;;;;5032703;28;19925;-43
2023/08/13 05:21:16;;;;;;;;;;;16.10;99.90;;;;;;5032559;28;19933;-43
2023/08/13 05:23:44;;;;;;;;;;;16.10;99.90;;;;;;5032612;28;20180;-43
2023/08/13 05:26:13;;;;;;;;;;;16.20;99.90;;;;;;5022240;28;19925;-43
2023/08/13 05:28:39;;;;;;;;;;;16.20;99.90;;;;;;5013606;28;20416;-43
2023/08/13 05:31:06;;;;;;;;;;;16.20;99.90;;;;;;5025655;28;19925;-43
2023/08/13 05:33:33;;;;;;;;;;;16.30;99.90;;;;;;5033252;28;19925;-42
2023/08/13 05:36:00;;;;;;;;;;;16.30;99.90;;;;;;5033667;28;19936;-43
2023/08/13 05:38:27;;;;;;;;;;;16.30;99.90;;;;;;5033476;28;19925;-43
2023/08/13 05:40:55;;;;;;;;;;;16.30;99.90;;;;;;5032526;28;19929;-43
2023/08/13 05:43:22;;;;;;;;;;;16.40;99.90;;;;;;5032734;28;19925;-43
2023/08/13 05:45:49;;;;;;;;;;;16.40;99.90;;;;;;5031708;28;19932;-43
2023/08/13 05:48:15;;;;;;;;;;;16.50;99.90;;;;;;5033017;28;20438;-43
2023/08/13 05:50:42;;;;;;;;;;;16.50;99.90;;;;;;5032636;28;19925;-43
2023/08/13 05:53:09;;;;;;;;;;;16.40;99.90;;;;;;5033303;28;19925;-42
2023/08/13 05:55:35;;;;;;;;;;;16.40;99.90;;;;;;5032247;28;19925;-43
2023/08/13 05:58:05;;;;;;;;;;;16.50;99.90;;;;;;5033062;28;19979;-43
2023/08/13 06:00:32;;;;;;;;;;;16.40;99.90;;;;;;5032006;28;19932;-43
2023/08/13 06:02:59;;;;;;;;;;;16.50;99.90;;;;;;5033171;28;20020;-43
2023/08/13 06:05:25;;;;;;;;;;;16.50;99.90;;;;;;5031977;28;19929;-43
2023/08/13 06:07:52;;;;;;;;;;;16.50;99.90;;;;;;5031594;28;19929;-43
2023/08/13 06:10:19;;;;;;;;;;;16.70;99.90;;;;;;5030107;28;20290;-43
2023/08/13 06:12:46;;;;;;;;;;;16.70;99.90;;;;;;5032198;28;19925;-42
2023/08/13 06:15:14;;;;;;;;;;;16.80;99.90;;;;;;5032548;28;19925;-43
2023/08/13 06:17:42;;;;;;;;;;;16.90;99.90;;;;;;5033004;28;19925;-43
2023/08/13 06:20:10;;;;;;;;;;;17.00;99.90;;;;;;5032527;28;19925;-42
2023/08/13 06:22:36;;;;;;;;;;;17.10;99.90;;;;;;5031880;28;20024;-43
2023/08/13 06:25:03;;;;;;;;;;;17.20;99.90;;;;;;5030399;28;19925;-41
2023/08/13 06:27:30;;;;;;;;;;;17.30;99.90;;;;;;5012876;28;20041;-43
2023/08/13 06:29:56;;;;;;;;;;;17.40;99.90;;;;;;5018413;28;20385;-42
2023/08/13 06:32:24;;;;;;;;;;;17.50;99.90;;;;;;5029985;28;19937;-43
2023/08/13 06:34:51;;;;;;;;;;;17.60;99.90;;;;;;5027836;28;20305;-43
2023/08/13 06:37:18;;;;;;;;;;;17.70;99.90;;;;;;5014261;28;19934;-43
2023/08/13 06:39:44;;;;;;;;;;;17.90;99.90;;;;;;5015654;28;19926;-42
2023/08/13 06:42:11;;;;;;;;;;;18.00;99.90;;;;;;5013948;28;19926;-42
2023/08/13 06:44:38;;;;;;;;;;;18.10;99.90;;;;;;5012491;28;20301;-43
2023/08/13 06:47:05;;;;;;;;;;;18.20;99.90;;;;;;5014451;28;20023;-43
2023/08/13 06:49:33;;;;;;;;;;;18.30;99.90;;;;;;5026379;28;19987;-43
2023/08/13 06:52:00;;;;;;;;;;;18.30;99.90;;;;;;5016068;28;20385;-43
2023/08/13 06:54:27;;;;;;;;;;;18.40;99.90;;;;;;5030110;28;19932;-43
2023/08/13 06:56:53;;;;;;;;;;;18.40;99.90;;;;;;5024744;28;19929;-43
2023/08/13 06:59:20;;;;;;;;;;;18.40;99.90;;;;;;5025235;28;20316;-42
2023/08/13 07:01:47;;;;;;;;;;;18.50;99.90;;;;;;5026141;28;20376;-42
2023/08/13 07:04:13;;;;;;;;;;;18.50;99.90;;;;;;5031383;28;19925;-43
2023/08/13 07:06:42;;;;;;;;;;;18.50;99.90;;;;;;5018403;28;19926;-43
2023/08/13 07:09:08;;;;;;;;;;;18.60;99.90;;;;;;5014482;28;19945;-43
2023/08/13 07:11:36;;;;;;;;;;;18.70;99.90;;;;;;5026701;28;19929;-43
2023/08/13 07:14:03;;;;;;;;;;;18.80;99.90;;;;;;5026044;28;19926;-42
2023/08/13 07:16:30;;;;;;;;;;;18.90;99.90;;;;;;5030492;28;19979;-43
2023/08/13 07:18:56;;;;;;;;;;;19.00;99.90;;;;;;5028379;28;19925;-43
2023/08/13 07:21:23;;;;;;;;;;;19.20;99.90;;;;;;5027937;28;19925;-44
2023/08/13 07:23:51;;;;;;;;;;;19.40;99.90;;;;;;5030403;28;20779;-43
2023/08/13 07:26:18;;;;;;;;;;;19.50;99.90;;;;;;5028293;28;19979;-43
2023/08/13 07:28:45;;;;;;;;;;;19.60;99.90;;;;;;5027801;28;19925;-43
2023/08/13 07:31:11;;;;;;;;;;;19.80;99.90;;;;;;5023337;28;20424;-43
2023/08/13 07:33:38;;;;;;;;;;;19.80;99.90;;;;;;5025151;28;19925;-43
2023/08/13 07:36:05;;;;;;;;;;;19.80;99.90;;;;;;5029660;28;19928;-43
2023/08/13 07:38:33;;;;;;;;;;;19.70;99.90;;;;;;5029551;28;20308;-43
2023/08/13 07:41:03;;;;;;;;;;;19.70;99.90;;;;;;5010614;28;19925;-43
2023/08/13 07:43:29;;;;;;;;;;;19.80;99.90;;;;;;5018969;28;20381;-44
2023/08/13 07:45:56;;;;;;;;;;;19.80;99.90;;;;;;5029964;28;19925;-42
2023/08/13 07:48:23;;;;;;;;;;;19.90;99.90;;;;;;5031604;28;19987;-43
2023/08/13 07:50:50;;;;;;;;;;;19.90;99.90;;;;;;5028832;28;19925;-43
2023/08/13 07:53:16;;;;;;;;;;;20.00;99.90;;;;;;5030272;28;19925;-44
2023/08/13 07:55:46;;;;;;;;;;;20.10;99.90;;;;;;5031441;28;20309;-44
2023/08/13 07:58:14;;;;;;;;;;;20.20;99.90;;;;;;5022185;28;19925;-43
2023/08/13 08:00:41;;;;;;;;;;;20.40;99.90;;;;;;5019701;28;19979;-43
2023/08/13 08:03:08;;;;;;;;;;;20.60;99.90;;;;;;5029813;28;19925;-43
2023/08/13 08:05:35;;;;;;;;;;;20.80;99.90;;;;;;5031378;28;19933;-43
2023/08/13 08:08:02;;;;;;;;;;;21.00;99.90;;;;;;5030470;28;20015;-43
2023/08/13 08:10:29;;;;;;;;;;;21.20;99.90;;;;;;5030291;28;19940;-43
2023/08/13 08:12:55;;;;;;;;;;;21.20;99.90;;;;;;5029985;28;19956;-43
2023/08/13 08:15:24;;;;;;;;;;;21.30;99.90;;;;;;5031555;28;19925;-43
2023/08/13 08:17:50;;;;;;;;;;;21.30;99.90;;;;;;5031661;28;19933;-43
2023/08/13 08:20:17;;;;;;;;;;;21.40;99.90;;;;;;5034338;28;20369;-43
2023/08/13 08:22:44;;;;;;;;;;;21.40;99.90;;;;;;5035074;28;19925;-43
2023/08/13 08:25:11;;;;;;;;;;;21.40;99.90;;;;;;5034950;28;20344;-43
2023/08/13 08:27:37;;;;;;;;;;;21.40;99.90;;;;;;5034674;28;19925;-44
2023/08/13 08:30:04;;;;;;;;;;;21.50;99.90;;;;;;5034867;28;19933;-43
2023/08/13 08:32:32;;;;;;;;;;;21.60;99.90;;;;;;5033977;28;19929;-43
2023/08/13 08:34:59;;;;;;;;;;;21.80;99.90;;;;;;5033298;28;19933;-43
2023/08/13 08:37:26;;;;;;;;;;;22.00;99.90;;;;;;5034246;28;19935;-43
2023/08/13 08:39:53;;;;;;;;;;;22.20;99.90;;;;;;5034073;28;19925;-43
2023/08/13 08:42:19;;;;;;;;;;;22.30;99.90;;;;;;5031685;28;19932;-43
2023/08/13 08:44:46;;;;;;;;;;;22.40;99.90;;;;;;5021791;28;19937;-43
2023/08/13 08:47:13;;;;;;;;;;;22.60;99.90;;;;;;5029880;28;19932;-43
2023/08/13 08:49:41;;;;;;;;;;;22.70;99.90;;;;;;5031350;28;20285;-43
2023/08/13 08:52:07;;;;;;;;;;;22.80;99.90;;;;;;5029089;28;19987;-42
2023/08/13 08:54:38;;;;;;;;;;;22.90;99.90;;;;;;5021275;28;19929;-43
2023/08/13 09:00:09;;;;;;;;;;;23.10;99.90;;;;;;5002934;28;19926;-43
2023/08/13 09:02:38;;;;;;;;;;;23.30;99.90;;;;;;5001869;28;20002;-43
2023/08/13 09:05:06;;;;;;;;;;;23.40;99.90;;;;;;4997274;28;20389;-42
2023/08/13 09:07:33;;;;;;;;;;;23.60;99.90;;;;;;4992798;28;19975;-42
2023/08/13 09:09:59;;;;;;;;;;;23.70;99.90;;;;;;5008277;28;20010;-43
2023/08/13 09:12:26;;;;;;;;;;;23.90;99.90;;;;;;5002445;28;19944;-43
2023/08/13 09:14:53;;;;;;;;;;;23.90;99.90;;;;;;5022117;28;20388;-43
2023/08/13 09:17:22;;;;;;;;;;;23.90;99.90;;;;;;5013576;28;20381;-43
2023/08/13 09:19:49;;;;;;;;;;;23.80;99.90;;;;;;5011715;28;19988;-43
2023/08/13 09:22:17;;;;;;;;;;;23.80;99.90;;;;;;4993261;28;19992;-43
2023/08/13 09:24:46;;;;;;;;;;;23.70;99.90;;;;;;4993293;28;19930;-43
2023/08/13 09:27:16;;;;;;;;;;;23.70;99.90;;;;;;4993105;28;20302;-43
2023/08/13 09:29:43;;;;;;;;;;;23.70;99.90;;;;;;4995096;28;19971;-43
2023/08/13 09:32:10;;;;;;;;;;;23.80;99.90;;;;;;5011851;28;19944;-42
2023/08/13 09:34:36;;;;;;;;;;;24.00;99.90;;;;;;5013526;28;19933;-43
2023/08/13 09:37:03;;;;;;;;;;;24.10;99.90;;;;;;4997365;28;20330;-44
2023/08/13 09:39:31;;;;;;;;;;;24.20;99.90;;;;;;5002260;28;19933;-43
2023/08/13 09:41:59;;;;;;;;;;;24.30;99.90;;;;;;5010108;28;19960;-43
2023/08/13 09:44:25;;;;;;;;;;;24.40;99.90;;;;;;5008419;28;20394;-43
2023/08/13 09:46:53;;;;;;;;;;;24.60;99.90;;;;;;5006698;28;19925;-43
2023/08/13 09:49:19;;;;;;;;;;;24.60;99.90;;;;;;5008734;28;19963;-44
2023/08/13 09:51:47;;;;;;;;;;;24.70;99.90;;;;;;5009250;28;19988;-43
2023/08/13 09:54:16;;;;;;;;;;;24.70;99.90;;;;;;5017726;28;19983;-43
2023/08/13 09:56:45;;;;;;;;;;;24.80;99.90;;;;;;5011210;28;20336;-43
2023/08/13 09:59:14;;;;;;;;;;;24.80;99.90;;;;;;5009893;28;20220;-44
2023/08/13 10:01:40;;;;;;;;;;;24.60;99.90;;;;;;5001272;28;20293;-44
2023/08/13 10:04:07;;;;;;;;;;;24.50;99.90;;;;;;4995229;28;19988;-44
2023/08/13 10:06:34;;;;;;;;;;;24.60;99.90;;;;;;5009440;28;19925;-44
2023/08/13 10:09:01;;;;;;;;;;;24.60;99.90;;;;;;5001537;28;20385;-43
2023/08/13 10:11:28;;;;;;;;;;;24.70;99.90;;;;;;5012090;28;19964;-43
2023/08/13 10:13:56;;;;;;;;;;;24.70;99.90;;;;;;4999559;28;19948;-43
2023/08/13 10:16:22;;;;;;;;;;;24.80;99.90;;;;;;5002863;28;19933;-43
2023/08/13 10:18:49;;;;;;;;;;;24.90;99.90;;;;;;4991634;28;19981;-44
2023/08/13 10:21:16;;;;;;;;;;;24.90;99.90;;;;;;4994209;28;20328;-44
2023/08/13 10:23:42;;;;;;;;;;;24.90;99.90;;;;;;5003804;28;20376;-44
2023/08/13 10:26:09;;;;;;;;;;;24.70;99.90;;;;;;5011147;28;19963;-43
2023/08/13 10:28:36;;;;;;;;;;;24.70;99.90;;;;;;5010613;28;20363;-43
2023/08/13 10:31:22;;;;;;;;;;;24.70;99.90;;;;;;5011920;28;19940;-44
2023/08/13 10:33:50;;;;;;;;;;;24.70;99.90;;;;;;5001332;28;19984;-43
2023/08/13 10:36:16;;;;;;;;;;;24.70;99.90;;;;;;4992204;28;19932;-44
2023/08/13 10:38:43;;;;;;;;;;;24.80;99.90;;;;;;4998929;28;20018;-43
2023/08/13 10:41:10;;;;;;;;;;;25.00;99.90;;;;;;5009743;28;20007;-44
2023/08/13 10:43:36;;;;;;;;;;;25.00;99.90;;;;;;4995570;28;19925;-44
2023/08/13 10:46:04;;;;;;;;;;;25.10;99.90;;;;;;4998235;28;19925;-43
2023/08/13 10:48:31;;;;;;;;;;;25.10;99.90;;;;;;4993661;28;20486;-44
2023/08/13 10:50:59;;;;;;;;;;;25.10;99.90;;;;;;5011297;28;19947;-43
2023/08/13 10:53:27;;;;;;;;;;;25.00;99.90;;;;;;5011112;28;19983;-44
2023/08/13 10:55:54;;;;;;;;;;;24.90;99.90;;;;;;5003542;28;19933;-43
2023/08/13 10:58:24;;;;;;;;;;;24.90;99.90;;;;;;5005530;28;19925;-44
2023/08/13 11:00:51;;;;;;;;;;;24.90;99.90;;;;;;5011424;28;19960;-44
2023/08/13 11:03:19;;;;;;;;;;;25.00;99.90;;;;;;5011839;28;20297;-44
2023/08/13 11:05:45;;;;;;;;;;;25.00;99.90;;;;;;4996371;28;20046;-43
2023/08/13 11:08:16;;;;;;;;;;;25.00;99.80;;;;;;5008296;28;19932;-44
2023/08/13 11:10:43;;;;;;;;;;;25.00;99.90;;;;;;5031487;28;19925;-44
2023/08/13 11:13:10;;;;;;;;;;;25.00;99.90;;;;;;5027851;28;20011;-43
2023/08/13 11:15:37;;;;;;;;;;;25.00;99.90;;;;;;5030429;28;19943;-44
2023/08/13 11:18:03;;;;;;;;;;;25.10;99.90;;;;;;5016133;28;20305;-44
2023/08/13 11:20:30;;;;;;;;;;;25.10;99.90;;;;;;5028160;28;19945;-44
2023/08/13 11:22:57;;;;;;;;;;;25.10;99.90;;;;;;5030649;28;19944;-44
2023/08/13 11:25:26;;;;;;;;;;;25.00;99.90;;;;;;5023961;28;20450;-44
2023/08/13 11:27:53;;;;;;;;;;;25.00;99.90;;;;;;5011016;28;19991;-44
2023/08/13 11:30:20;;;;;;;;;;;24.90;99.90;;;;;;5011513;28;19947;-44
2023/08/13 11:32:47;;;;;;;;;;;24.70;99.90;;;;;;4994278;28;20050;-46
2023/08/13 11:35:13;;;;;;;;;;;24.60;99.90;;;;;;5024299;28;19935;-44
2023/08/13 11:37:40;;;;;;;;;;;24.50;99.90;;;;;;5012329;28;20418;-44
2023/08/13 11:40:10;;;;;;;;;;;24.50;99.90;;;;;;5013494;28;19939;-43
2023/08/13 11:42:38;;;;;;;;;;;24.60;99.90;;;;;;5030915;28;20012;-44
2023/08/13 11:45:12;;;;;;;;;;;24.70;99.90;;;;;;5008634;28;19925;-43
2023/08/13 11:47:38;;;;;;;;;;;24.70;99.90;;;;;;4993235;28;20372;-44
2023/08/13 11:50:06;;;;;;;;;;;24.90;99.90;;;;;;5006917;28;19959;-44
2023/08/13 11:52:32;;;;;;;;;;;24.90;99.90;;;;;;5008765;28;19943;-43
2023/08/13 11:55:01;;;;;;;;;;;25.00;99.90;;;;;;4999237;28;19925;-44
2023/08/13 11:57:27;;;;;;;;;;;25.00;99.90;;;;;;5017271;28;19966;-43
2023/08/13 11:59:57;;;;;;;;;;;25.00;99.90;;;;;;4998174;28;19932;-44
2023/08/13 12:02:24;;;;;;;;;;;25.00;99.90;;;;;;4997657;28;20396;-44
2023/08/13 12:04:50;;;;;;;;;;;25.00;99.90;;;;;;4999381;28;19960;-44
2023/08/13 12:07:17;;;;;;;;;;;25.00;99.90;;;;;;5005371;28;20339;-44
2023/08/13 12:09:44;;;;;;;;;;;25.00;99.90;;;;;;4998477;28;19976;-43
2023/08/13 12:12:11;;;;;;;;;;;25.00;99.90;;;;;;5013430;28;19967;-43
2023/08/13 12:14:44;;;;;;;;;;;24.90;99.90;;;;;;4997849;28;20462;-43
2023/08/13 12:17:12;;;;;;;;;;;24.80;99.90;;;;;;4991363;28;19945;-43
2023/08/13 12:19:39;;;;;;;;;;;24.70;99.90;;;;;;4991946;28;19930;-43
2023/08/13 12:22:06;;;;;;;;;;;24.60;99.90;;;;;;5003048;28;20390;-43
2023/08/13 12:24:32;;;;;;;;;;;24.60;99.90;;;;;;5001390;28;19929;-43
2023/08/13 12:26:59;;;;;;;;;;;24.60;99.90;;;;;;5011306;28;20698;-44
2023/08/13 12:29:26;;;;;;;;;;;24.70;99.90;;;;;;4989520;28;20381;-44
2023/08/13 12:31:52;;;;;;;;;;;24.70;99.90;;;;;;5000527;28;19947;-43
2023/08/13 12:34:20;;;;;;;;;;;24.80;99.90;;;;;;4995986;28;20019;-43
2023/08/13 12:36:47;;;;;;;;;;;24.80;99.90;;;;;;5001198;28;19986;-44
2023/08/13 12:39:14;;;;;;;;;;;24.90;99.90;;;;;;5007870;28;19968;-44
2023/08/13 12:41:41;;;;;;;;;;;25.00;99.90;;;;;;5009846;28;19930;-43
2023/08/13 12:44:08;;;;;;;;;;;25.10;99.90;;;;;;5005803;28;19937;-44
2023/08/13 12:46:34;;;;;;;;;;;25.10;99.90;;;;;;4989992;28;19936;-43
2023/08/13 12:49:01;;;;;;;;;;;25.10;99.90;;;;;;4986708;28;20010;-44
2023/08/13 12:51:29;;;;;;;;;;;25.00;99.90;;;;;;4996799;28;19943;-43
2023/08/13 12:53:56;;;;;;;;;;;25.00;99.90;;;;;;5019014;28;19933;-43
2023/08/13 12:56:22;;;;;;;;;;;25.00;99.90;;;;;;5001671;28;20448;-43
2023/08/13 12:58:49;;;;;;;;;;;25.00;99.90;;;;;;5001318;28;19925;-43
2023/08/13 13:01:16;;;;;;;;;;;25.00;99.90;;;;;;4990506;28;19929;-44
2023/08/13 13:03:43;;;;;;;;;;;25.00;99.90;;;;;;4992675;28;19926;-43
2023/08/13 13:06:09;;;;;;;;;;;25.00;99.90;;;;;;5006768;28;19933;-42
2023/08/13 13:08:37;;;;;;;;;;;25.10;99.90;;;;;;5007643;28;19936;-43
2023/08/13 13:11:04;;;;;;;;;;;25.10;99.90;;;;;;4991726;28;19991;-43
2023/08/13 13:13:31;;;;;;;;;;;25.10;99.90;;;;;;5015221;28;20369;-44
2023/08/13 13:15:58;;;;;;;;;;;25.10;99.90;;;;;;5005375;28;20498;-43
2023/08/13 13:18:25;;;;;;;;;;;25.10;99.90;;;;;;5008924;28;20006;-43
2023/08/13 13:20:51;;;;;;;;;;;25.00;99.90;;;;;;5002080;28;19933;-43
2023/08/13 13:23:18;;;;;;;;;;;24.90;99.90;;;;;;4993634;28;19925;-43
2023/08/13 13:25:46;;;;;;;;;;;24.80;99.90;;;;;;5005997;28;19940;-42
2023/08/13 13:28:13;;;;;;;;;;;24.70;99.90;;;;;;4984813;28;19941;-43
2023/08/13 13:30:40;;;;;;;;;;;24.70;99.90;;;;;;4999226;28;19963;-43
2023/08/13 13:33:06;;;;;;;;;;;24.60;99.90;;;;;;4986782;28;19925;-43
2023/08/13 13:35:33;;;;;;;;;;;24.50;99.90;;;;;;5008410;28;19953;-43
2023/08/13 13:38:00;;;;;;;;;;;24.40;99.90;;;;;;4996400;28;19951;-43
2023/08/13 13:40:27;;;;;;;;;;;24.30;99.90;;;;;;4978315;28;20008;-44
2023/08/13 13:42:55;;;;;;;;;;;24.10;99.90;;;;;;4994904;28;20015;-43
2023/08/13 13:45:22;;;;;;;;;;;24.10;99.90;;;;;;4990955;28;19948;-43
2023/08/13 13:47:48;;;;;;;;;;;24.10;99.90;;;;;;5001629;28;19960;-43
2023/08/13 13:50:15;;;;;;;;;;;24.10;99.90;;;;;;5010346;28;19965;-43
2023/08/13 13:52:42;;;;;;;;;;;24.00;99.90;;;;;;5000970;28;19925;-43
2023/08/13 13:55:09;;;;;;;;;;;24.00;99.90;;;;;;5001345;28;19956;-42
2023/08/13 13:57:35;;;;;;;;;;;24.00;99.90;;;;;;5006952;28;19988;-43
2023/08/13 14:00:05;;;;;;;;;;;24.10;99.90;;;;;;5004085;28;19932;-43
2023/08/13 14:02:32;;;;;;;;;;;24.20;99.90;;;;;;5021218;28;20358;-43
2023/08/13 14:04:59;;;;;;;;;;;24.30;99.90;;;;;;5023367;28;19948;-43
2023/08/13 14:07:26;;;;;;;;;;;24.50;99.90;;;;;;5027416;28;19936;-44
2023/08/13 14:09:53;;;;;;;;;;;24.60;99.90;;;;;;5029439;28;19940;-43
2023/08/13 14:12:20;;;;;;;;;;;24.70;99.90;;;;;;5032131;28;20473;-43
2023/08/13 14:14:47;;;;;;;;;;;24.80;99.90;;;;;;5029188;28;19965;-42
2023/08/13 14:17:15;;;;;;;;;;;24.90;99.90;;;;;;5007192;28;19932;-42